createdAt,value
2022-12-03T00:01:35.505Z,101792.72
2022-12-03T00:04:03.450Z,101794.47
2022-12-03T00:06:34.479Z,101786.44
2022-12-03T00:09:03.402Z,101789.19
2022-12-03T00:11:31.601Z,101774.75
2022-12-03T00:13:59.502Z,101786.47
2022-12-03T00:16:29.018Z,101789.13
2022-12-03T00:18:56.889Z,101791.84
2022-12-03T00:21:25.015Z,101787.38
2022-12-03T00:23:52.963Z,101783.78
2022-12-03T00:26:20.826Z,101777.44
2022-12-03T00:28:49.549Z,101786.47
2022-12-03T00:31:17.677Z,101785.53
2022-12-03T00:33:46.937Z,101780.25
2022-12-03T00:36:14.755Z,101776.56
2022-12-03T00:38:42.606Z,101775.69
2022-12-03T00:41:10.511Z,101770.28
2022-12-03T00:43:38.423Z,101767.69
2022-12-03T00:46:06.599Z,101763.16
2022-12-03T00:48:35.881Z,101770.38
2022-12-03T00:51:05.265Z,101767.72
2022-12-03T00:53:33.099Z,101762.34
2022-12-03T00:56:01.537Z,101773.09
2022-12-03T00:58:29.379Z,101776.66
2022-12-03T01:00:57.487Z,101772.19
2022-12-03T01:03:25.333Z,101768.56
2022-12-03T01:05:53.147Z,101765.88
2022-12-03T01:08:22.324Z,101770.28
2022-12-03T01:10:50.054Z,101781.13
2022-12-03T01:13:17.900Z,101776.63
2022-12-03T01:15:45.824Z,101785.59
2022-12-03T01:18:13.692Z,101785.53
2022-12-03T01:20:41.486Z,101782.00
2022-12-03T01:23:09.392Z,101777.50
2022-12-03T01:25:38.572Z,101772.16
2022-12-03T01:28:06.409Z,101785.75
2022-12-03T01:30:54.597Z,101777.66
2022-12-03T01:33:21.551Z,101780.34
2022-12-03T01:35:49.403Z,101781.22
2022-12-03T01:38:17.272Z,101777.66
2022-12-03T01:40:47.151Z,101779.50
2022-12-03T01:43:15.110Z,101783.13
2022-12-03T01:45:42.975Z,101772.38
2022-12-03T01:48:15.304Z,101772.34
2022-12-03T01:50:44.333Z,101781.44
2022-12-03T01:53:16.486Z,101784.06
2022-12-03T01:55:48.420Z,101783.25
2022-12-03T01:58:24.935Z,101770.56
2022-12-03T02:00:52.910Z,101776.91
2022-12-03T02:03:23.972Z,101778.72
2022-12-03T02:05:52.359Z,101775.09
2022-12-03T02:08:31.512Z,101783.19
2022-12-03T02:11:03.019Z,101786.00
2022-12-03T02:13:33.047Z,101775.13
2022-12-03T02:16:00.874Z,101780.59
2022-12-03T02:18:28.731Z,101778.78
2022-12-03T02:21:04.335Z,101780.50
2022-12-03T02:23:41.534Z,101772.38
2022-12-03T02:26:11.256Z,101774.16
2022-12-03T02:28:39.248Z,101767.94
2022-12-03T02:31:07.666Z,101769.63
2022-12-03T02:33:36.159Z,101768.69
2022-12-03T02:36:04.416Z,101768.63
2022-12-03T02:38:37.455Z,101759.63
2022-12-03T02:41:09.487Z,101755.00
2022-12-03T02:43:38.570Z,101756.13
2022-12-03T02:46:08.960Z,101755.13
2022-12-03T02:48:39.451Z,101749.66
2022-12-03T02:51:10.290Z,101755.06
2022-12-03T02:53:42.389Z,101749.63
2022-12-03T02:56:13.140Z,101754.22
2022-12-03T02:58:44.804Z,101738.88
2022-12-03T03:01:16.995Z,101742.44
2022-12-03T03:03:46.844Z,101743.44
2022-12-03T03:06:16.378Z,101737.97
2022-12-03T03:08:44.951Z,101739.78
2022-12-03T03:11:13.344Z,101745.19
2022-12-03T03:13:43.047Z,101742.44
2022-12-03T03:16:11.422Z,101746.97
2022-12-03T03:18:40.089Z,101740.69
2022-12-03T03:21:08.136Z,101740.69
2022-12-03T03:23:36.208Z,101734.34
2022-12-03T03:26:06.597Z,101741.50
2022-12-03T03:28:38.583Z,101744.25
2022-12-03T03:31:10.060Z,101737.97
2022-12-03T03:33:40.581Z,101733.50
2022-12-03T03:36:09.640Z,101736.22
2022-12-03T03:38:38.081Z,101733.59
2022-12-03T03:41:09.101Z,101737.16
2022-12-03T03:43:39.385Z,101731.84
2022-12-03T03:46:09.686Z,101728.25
2022-12-03T03:48:37.927Z,101731.94
2022-12-03T03:51:09.604Z,101739.09
2022-12-03T03:53:39.754Z,101726.50
2022-12-03T03:56:09.576Z,101731.88
2022-12-03T03:58:37.940Z,101723.84
2022-12-03T04:01:05.900Z,101727.41
2022-12-03T04:03:35.201Z,101731.88
2022-12-03T04:06:03.254Z,101737.28
2022-12-03T04:08:31.529Z,101725.59
2022-12-03T04:11:16.674Z,101730.06
2022-12-03T04:13:44.628Z,101734.59
2022-12-03T04:16:12.604Z,101725.56
2022-12-03T04:18:43.800Z,101730.94
2022-12-03T04:21:46.953Z,101733.00
2022-12-03T04:24:16.109Z,101727.31
2022-12-03T04:27:01.166Z,101728.19
2022-12-03T04:29:29.151Z,101712.09
2022-12-03T04:32:14.306Z,101720.16
2022-12-03T04:35:01.349Z,101717.50
2022-12-03T04:37:29.359Z,101723.00
2022-12-03T04:39:57.351Z,101723.91
2022-12-03T04:42:25.188Z,101714.03
2022-12-03T04:44:53.528Z,101714.13
2022-12-03T04:47:23.021Z,101717.66
2022-12-03T04:49:53.184Z,101715.94
2022-12-03T04:52:22.202Z,101709.66
2022-12-03T04:54:50.384Z,101712.34
2022-12-03T04:57:18.285Z,101715.97
2022-12-03T04:59:46.179Z,101706.06
2022-12-03T05:02:14.348Z,101709.66
2022-12-03T05:04:42.364Z,101710.59
2022-12-03T05:07:12.758Z,101706.06
2022-12-03T05:09:40.625Z,101706.06
2022-12-03T05:12:09.060Z,101707.00
2022-12-03T05:14:37.003Z,101698.91
2022-12-03T05:17:05.041Z,101705.25
2022-12-03T05:19:50.315Z,101705.28
2022-12-03T05:22:19.506Z,101710.69
2022-12-03T05:24:47.331Z,101708.03
2022-12-03T05:27:23.441Z,101707.09
2022-12-03T05:29:51.770Z,101702.66
2022-12-03T05:32:19.938Z,101711.63
2022-12-03T05:34:47.854Z,101706.22
2022-12-03T05:37:15.798Z,101712.50
2022-12-03T05:39:45.067Z,101702.59
2022-12-03T05:42:30.096Z,101703.53
2022-12-03T05:44:57.923Z,101703.66
2022-12-03T05:47:25.872Z,101703.59
2022-12-03T05:49:53.819Z,101700.88
2022-12-03T05:52:21.682Z,101700.03
2022-12-03T05:54:51.163Z,101696.44
2022-12-03T05:57:19.231Z,101691.09
2022-12-03T05:59:47.190Z,101696.50
2022-12-03T06:02:15.069Z,101697.38
2022-12-03T06:04:43.551Z,101698.31
2022-12-03T06:07:14.171Z,101692.97
2022-12-03T06:09:42.525Z,101693.84
2022-12-03T06:12:11.731Z,101700.13
2022-12-03T06:14:39.611Z,101696.59
2022-12-03T06:17:07.634Z,101696.59
2022-12-03T06:19:35.929Z,101693.84
2022-12-03T06:22:03.683Z,101702.00
2022-12-03T06:24:31.506Z,101708.28
2022-12-03T06:26:59.304Z,101702.00
2022-12-03T06:29:28.747Z,101695.72
2022-12-03T06:31:56.653Z,101704.75
2022-12-03T06:34:24.563Z,101699.34
2022-12-03T06:36:52.469Z,101697.53
2022-12-03T06:39:22.587Z,101694.91
2022-12-03T06:41:50.388Z,101691.41
2022-12-03T06:44:18.304Z,101694.03
2022-12-03T06:46:47.602Z,101698.56
2022-12-03T06:49:15.579Z,101698.63
2022-12-03T06:51:43.545Z,101691.56
2022-12-03T06:54:12.078Z,101691.50
2022-12-03T06:56:45.201Z,101687.97
2022-12-03T06:59:14.324Z,101688.91
2022-12-03T07:01:42.266Z,101688.91
2022-12-03T07:04:11.643Z,101685.28
2022-12-03T07:06:39.571Z,101690.81
2022-12-03T07:09:07.471Z,101692.69
2022-12-03T07:11:40.362Z,101689.97
2022-12-03T07:14:11.541Z,101698.88
2022-12-03T07:16:40.472Z,101695.63
2022-12-03T07:19:08.791Z,101693.72
2022-12-03T07:21:38.165Z,101693.72
2022-12-03T07:24:06.550Z,101689.28
2022-12-03T07:26:37.029Z,101686.63
2022-12-03T07:29:04.943Z,101688.44
2022-12-03T07:31:33.093Z,101683.06
2022-12-03T07:34:01.927Z,101692.97
2022-12-03T07:36:29.873Z,101677.75
2022-12-03T07:38:59.059Z,101684.91
2022-12-03T07:41:26.837Z,101685.03
2022-12-03T07:43:54.751Z,101683.22
2022-12-03T07:46:22.621Z,101687.81
2022-12-03T07:48:50.621Z,101689.63
2022-12-03T07:51:18.453Z,101695.03
2022-12-03T07:53:46.457Z,101692.38
2022-12-03T07:56:15.804Z,101695.91
2022-12-03T07:58:44.085Z,101694.19
2022-12-03T08:01:11.908Z,101696.84
2022-12-03T08:03:39.961Z,101700.47
2022-12-03T08:06:08.664Z,101693.19
2022-12-03T08:08:36.631Z,101693.19
2022-12-03T08:11:05.457Z,101693.19
2022-12-03T08:13:36.260Z,101686.78
2022-12-03T08:16:16.793Z,101684.91
2022-12-03T08:18:47.281Z,101684.97
2022-12-03T08:21:17.594Z,101687.63
2022-12-03T08:23:45.631Z,101694.84
2022-12-03T08:26:21.520Z,101694.72
2022-12-03T08:28:53.707Z,101692.13
2022-12-03T08:31:32.228Z,101689.44
2022-12-03T08:34:16.657Z,101686.63
2022-12-03T08:36:44.480Z,101687.47
2022-12-03T08:39:28.055Z,101692.13
2022-12-03T08:42:17.031Z,101693.91
2022-12-03T08:44:46.344Z,101690.28
2022-12-03T08:47:19.896Z,101695.63
2022-12-03T08:49:52.402Z,101697.44
2022-12-03T08:52:22.209Z,101694.72
2022-12-03T08:54:55.341Z,101700.88
2022-12-03T08:57:28.086Z,101708.91
2022-12-03T09:00:01.300Z,101703.53
2022-12-03T09:02:34.223Z,101701.59
2022-12-03T09:05:14.236Z,101693.41
2022-12-03T09:07:42.243Z,101699.69
2022-12-03T09:10:10.785Z,101702.31
2022-12-03T09:12:42.065Z,101698.63
2022-12-03T09:15:12.422Z,101701.13
2022-12-03T09:17:40.235Z,101699.25
2022-12-03T09:20:09.192Z,101704.47
2022-12-03T09:22:37.225Z,101698.13
2022-12-03T09:25:05.511Z,101694.38
2022-12-03T09:27:33.370Z,101697.97
2022-12-03T09:30:01.155Z,101691.53
2022-12-03T09:32:30.423Z,101695.97
2022-12-03T09:34:58.554Z,101695.97
2022-12-03T09:37:26.385Z,101701.31
2022-12-03T09:39:54.364Z,101698.56
2022-12-03T09:42:22.317Z,101703.94
2022-12-03T09:44:50.430Z,101688.69
2022-12-03T09:47:18.540Z,101694.91
2022-12-03T09:49:48.083Z,101689.38
2022-12-03T09:52:24.089Z,101690.25
2022-12-03T09:54:53.520Z,101688.50
2022-12-03T09:57:21.747Z,101679.47
2022-12-03T09:59:49.834Z,101685.75
2022-12-03T10:02:22.366Z,101687.44
2022-12-03T10:04:52.478Z,101676.69
2022-12-03T10:07:21.050Z,101682.09
2022-12-03T10:09:48.991Z,101677.59
2022-12-03T10:12:24.143Z,101678.47
2022-12-03T10:14:53.781Z,101675.78
2022-12-03T10:17:22.131Z,101671.34
2022-12-03T10:19:53.804Z,101666.00
2022-12-03T10:22:21.810Z,101652.50
2022-12-03T10:25:07.578Z,101653.41
2022-12-03T10:27:35.629Z,101649.94
2022-12-03T10:30:12.597Z,101652.66
2022-12-03T10:32:42.326Z,101650.88
2022-12-03T10:35:14.376Z,101643.63
2022-12-03T10:37:58.886Z,101642.72
2022-12-03T10:40:28.189Z,101631.94
2022-12-03T10:43:14.490Z,101638.13
2022-12-03T10:45:42.682Z,101623.88
2022-12-03T10:48:15.880Z,101625.50
2022-12-03T10:50:56.763Z,101619.16
2022-12-03T10:53:28.651Z,101616.47
2022-12-03T10:55:59.509Z,101610.19
2022-12-03T10:58:29.551Z,101610.13
2022-12-03T11:01:03.306Z,101609.19
2022-12-03T11:03:35.632Z,101596.63
2022-12-03T11:06:05.265Z,101598.44
2022-12-03T11:08:35.854Z,101601.03
2022-12-03T11:11:06.974Z,101597.41
2022-12-03T11:13:56.255Z,101595.59
2022-12-03T11:17:12.762Z,101594.75
2022-12-03T11:19:59.172Z,101592.06
2022-12-03T11:22:41.794Z,101590.19
2022-12-03T11:25:37.024Z,101596.53
2022-12-03T11:28:54.586Z,101589.25
2022-12-03T11:31:41.773Z,101582.97
2022-12-03T11:34:44.073Z,101584.78
2022-12-03T11:37:29.214Z,101577.56
2022-12-03T11:40:03.901Z,101575.66
2022-12-03T11:42:39.831Z,101566.59
2022-12-03T11:45:19.586Z,101574.59
2022-12-03T11:48:00.546Z,101566.50
2022-12-03T11:50:36.121Z,101561.03
2022-12-03T11:53:15.714Z,101564.53
2022-12-03T11:55:52.208Z,101556.31
2022-12-03T11:58:25.457Z,101549.19
2022-12-03T12:00:55.102Z,101551.03
2022-12-03T12:03:25.622Z,101554.59
2022-12-03T12:06:05.262Z,101553.59
2022-12-03T12:08:33.917Z,101544.75
2022-12-03T12:11:03.338Z,101542.03
2022-12-03T12:13:58.550Z,101544.75
2022-12-03T12:16:54.980Z,101537.63
2022-12-03T12:19:35.653Z,101543.91
2022-12-03T12:22:31.839Z,101533.22
2022-12-03T12:25:01.013Z,101535.78
2022-12-03T12:27:39.271Z,101530.25
2022-12-03T12:30:10.294Z,101529.41
2022-12-03T12:32:45.122Z,101529.34
2022-12-03T12:35:19.651Z,101523.91
2022-12-03T12:37:59.095Z,101516.72
2022-12-03T12:40:31.290Z,101512.22
2022-12-03T12:43:10.012Z,101511.28
2022-12-03T12:45:43.079Z,101513.09
2022-12-03T12:48:24.791Z,101504.06
2022-12-03T12:50:58.851Z,101499.66
2022-12-03T12:53:29.118Z,101506.81
2022-12-03T12:55:59.061Z,101502.34
2022-12-03T12:58:32.034Z,101497.81
2022-12-03T13:01:01.119Z,101492.53
2022-12-03T13:03:33.811Z,101499.88
2022-12-03T13:06:03.764Z,101499.88
2022-12-03T13:08:34.340Z,101498.03
2022-12-03T13:11:03.387Z,101492.63
2022-12-03T13:13:43.685Z,101496.13
2022-12-03T13:16:18.621Z,101489.94
2022-12-03T13:18:48.629Z,101487.25
2022-12-03T13:21:37.527Z,101480.03
2022-12-03T13:24:37.395Z,101489.06
2022-12-03T13:27:22.957Z,101477.38
2022-12-03T13:29:56.726Z,101477.38
2022-12-03T13:32:31.876Z,101474.69
2022-12-03T13:35:04.829Z,101477.44
2022-12-03T13:37:35.969Z,101472.97
2022-12-03T13:40:15.857Z,101479.91
2022-12-03T13:42:45.986Z,101476.50
2022-12-03T13:45:31.836Z,101475.50
2022-12-03T13:48:02.191Z,101470.22
2022-12-03T13:50:35.672Z,101468.34
2022-12-03T13:53:10.622Z,101470.09
2022-12-03T13:55:43.961Z,101463.81
2022-12-03T13:58:11.883Z,101464.69
2022-12-03T14:00:41.126Z,101452.06
2022-12-03T14:03:08.993Z,101461.03
2022-12-03T14:05:36.895Z,101457.53
2022-12-03T14:08:06.245Z,101451.31
2022-12-03T14:10:34.208Z,101458.47
2022-12-03T14:13:02.182Z,101453.13
2022-12-03T14:15:30.328Z,101454.88
2022-12-03T14:17:59.644Z,101454.00
2022-12-03T14:20:27.475Z,101455.84
2022-12-03T14:22:59.315Z,101458.53
2022-12-03T14:25:27.483Z,101458.59
2022-12-03T14:27:55.285Z,101461.22
2022-12-03T14:30:23.104Z,101455.84
2022-12-03T14:32:51.276Z,101458.53
2022-12-03T14:35:20.499Z,101460.28
2022-12-03T14:37:48.253Z,101455.88
2022-12-03T14:40:21.137Z,101457.66
2022-12-03T14:42:49.666Z,101454.13
2022-12-03T14:45:17.573Z,101450.50
2022-12-03T14:47:45.529Z,101453.19
2022-12-03T14:50:14.382Z,101457.72
2022-12-03T14:52:43.830Z,101455.00
2022-12-03T14:55:11.787Z,101449.66
2022-12-03T14:57:39.788Z,101451.44
2022-12-03T15:00:09.348Z,101452.31
2022-12-03T15:02:37.356Z,101448.81
2022-12-03T15:05:05.835Z,101451.44
2022-12-03T15:07:34.659Z,101448.72
2022-12-03T15:10:09.639Z,101450.50
2022-12-03T15:15:45.276Z,101453.06
2022-12-03T15:18:13.147Z,101455.84
2022-12-03T15:20:41.027Z,101453.13
2022-12-03T15:23:13.947Z,101448.66
2022-12-03T15:25:42.348Z,101445.97
2022-12-03T15:28:10.339Z,101448.66
2022-12-03T15:30:38.143Z,101451.38
2022-12-03T15:33:08.064Z,101459.47
2022-12-03T15:35:36.180Z,101455.00
2022-12-03T15:38:04.249Z,101460.41
2022-12-03T15:40:32.250Z,101462.31
2022-12-03T15:43:00.074Z,101451.53
2022-12-03T15:45:27.981Z,101454.22
2022-12-03T15:47:55.807Z,101456.97
2022-12-03T15:50:25.067Z,101450.66
2022-12-03T15:52:52.937Z,101450.66
2022-12-03T15:55:21.083Z,101452.47
2022-12-03T15:57:49.218Z,101458.75
2022-12-03T16:00:18.186Z,101451.66
2022-12-03T16:02:52.501Z,101453.47
2022-12-03T16:05:20.892Z,101447.25
2022-12-03T16:07:50.190Z,101453.53
2022-12-03T16:10:21.391Z,101454.53
2022-12-03T16:12:49.835Z,101450.88
2022-12-03T16:15:20.990Z,101453.66
2022-12-03T16:17:52.019Z,101442.00
2022-12-03T16:20:19.780Z,101453.66
2022-12-03T16:22:47.585Z,101451.91
2022-12-03T16:25:19.399Z,101452.78
2022-12-03T16:27:47.283Z,101455.50
2022-12-03T16:30:15.784Z,101452.69
2022-12-03T16:32:43.636Z,101449.13
2022-12-03T16:35:11.516Z,101455.41
2022-12-03T16:37:39.442Z,101458.09
2022-12-03T16:40:08.828Z,101456.34
2022-12-03T16:42:38.053Z,101451.81
2022-12-03T16:45:33.310Z,101442.84
2022-12-03T16:48:02.666Z,101438.41
2022-12-03T16:50:30.643Z,101442.94
2022-12-03T16:52:58.852Z,101441.19
2022-12-03T16:55:26.849Z,101447.50
2022-12-03T16:57:56.104Z,101440.28
2022-12-03T17:00:25.854Z,101444.81
2022-12-03T17:02:53.807Z,101439.47
2022-12-03T17:05:21.720Z,101435.84
2022-12-03T17:07:49.637Z,101436.72
2022-12-03T17:10:17.753Z,101434.03
2022-12-03T17:13:08.768Z,101440.34
2022-12-03T17:15:35.026Z,101440.34
2022-12-03T17:18:03.556Z,101447.50
2022-12-03T17:20:31.516Z,101443.88
2022-12-03T17:22:59.862Z,101438.41
2022-12-03T17:25:28.272Z,101438.47
2022-12-03T17:27:56.244Z,101432.19
2022-12-03T17:30:24.161Z,101435.84
2022-12-03T17:32:53.447Z,101437.59
2022-12-03T17:35:21.287Z,101433.13
2022-12-03T17:37:49.115Z,101431.38
2022-12-03T17:40:18.471Z,101433.25
2022-12-03T17:42:46.292Z,101427.84
2022-12-03T17:45:14.779Z,101424.28
2022-12-03T17:47:42.624Z,101427.06
2022-12-03T17:50:12.559Z,101426.97
2022-12-03T17:52:40.545Z,101424.44
2022-12-03T17:55:14.500Z,101426.19
2022-12-03T17:57:45.930Z,101419.91
2022-12-03T18:00:14.455Z,101424.44
2022-12-03T18:02:44.247Z,101418.16
2022-12-03T18:05:14.164Z,101410.00
2022-12-03T18:07:42.073Z,101424.38
2022-12-03T18:10:10.408Z,101411.81
2022-12-03T18:12:38.281Z,101411.81
2022-12-03T18:15:06.770Z,101413.56
2022-12-03T18:17:34.630Z,101410.88
2022-12-03T18:20:02.459Z,101413.56
2022-12-03T18:22:32.126Z,101407.28
2022-12-03T18:25:00.351Z,101406.41
2022-12-03T18:27:28.465Z,101414.56
2022-12-03T18:29:56.616Z,101400.19
2022-12-03T18:32:29.692Z,101410.06
2022-12-03T18:34:58.901Z,101401.13
2022-12-03T18:37:28.935Z,101403.97
2022-12-03T18:39:59.231Z,101401.13
2022-12-03T18:42:27.585Z,101393.03
2022-12-03T18:44:57.672Z,101392.09
2022-12-03T18:47:30.808Z,101398.44
2022-12-03T18:49:58.907Z,101388.63
2022-12-03T18:52:26.909Z,101392.22
2022-12-03T18:54:56.507Z,101390.41
2022-12-03T18:57:25.821Z,101394.91
2022-12-03T18:59:53.915Z,101395.00
2022-12-03T19:05:11.065Z,101391.44
2022-12-03T19:07:39.225Z,101389.63
2022-12-03T19:10:08.703Z,101397.72
2022-12-03T19:12:38.193Z,101388.72
2022-12-03T19:15:07.467Z,101389.66
2022-12-03T19:17:35.308Z,101390.63
2022-12-03T19:20:05.294Z,101389.72
2022-12-03T19:22:33.115Z,101388.84
2022-12-03T19:25:00.982Z,101385.28
2022-12-03T19:27:32.100Z,101390.66
2022-12-03T19:30:01.320Z,101386.22
2022-12-03T19:32:29.144Z,101386.28
2022-12-03T19:34:56.999Z,101389.91
2022-12-03T19:37:24.817Z,101393.59
2022-12-03T19:39:54.558Z,101390.78
2022-12-03T19:42:22.590Z,101395.47
2022-12-03T19:44:50.410Z,101399.03
2022-12-03T19:47:19.832Z,101395.47
2022-12-03T19:49:47.629Z,101396.41
2022-12-03T19:52:15.705Z,101394.59
2022-12-03T19:54:43.514Z,101396.41
2022-12-03T19:57:11.373Z,101401.81
2022-12-03T19:59:42.726Z,101400.03
2022-12-03T20:02:10.930Z,101399.16
2022-12-03T20:04:40.196Z,101396.47
2022-12-03T20:07:08.070Z,101394.69
2022-12-03T20:09:35.885Z,101400.97
2022-12-03T20:12:03.767Z,101395.56
2022-12-03T20:14:31.716Z,101393.75
2022-12-03T20:16:59.738Z,101396.47
2022-12-03T20:19:27.738Z,101397.41
2022-12-03T20:22:02.379Z,101400.09
2022-12-03T20:24:30.851Z,101396.53
2022-12-03T20:26:58.728Z,101392.94
2022-12-03T20:29:26.590Z,101394.69
2022-12-03T20:31:54.550Z,101386.59
2022-12-03T20:34:22.516Z,101390.19
2022-12-03T20:36:50.331Z,101389.31
2022-12-03T20:39:19.637Z,101389.25
2022-12-03T20:41:47.468Z,101392.94
2022-12-03T20:44:15.483Z,101385.72
2022-12-03T20:46:43.662Z,101388.41
2022-12-03T20:49:11.650Z,101383.91
2022-12-03T20:51:39.513Z,101378.50
2022-12-03T20:54:08.598Z,101375.88
2022-12-03T20:56:39.518Z,101380.25
2022-12-03T20:59:11.324Z,101374.00
2022-12-03T21:01:40.080Z,101368.66
2022-12-03T21:04:08.838Z,101375.81
2022-12-03T21:06:38.018Z,101370.41
2022-12-03T21:09:07.516Z,101374.00
2022-12-03T21:11:39.028Z,101366.91
2022-12-03T21:14:06.931Z,101366.03
2022-12-03T21:17:06.572Z,101365.06
2022-12-03T21:19:27.208Z,101368.75
2022-12-03T21:21:55.117Z,101374.06
2022-12-03T21:24:23.077Z,101372.28
2022-12-03T21:26:52.219Z,101370.41
2022-12-03T21:29:20.362Z,101371.44
2022-12-03T21:31:48.167Z,101373.16
2022-12-03T21:34:16.081Z,101371.34
2022-12-03T21:36:43.891Z,101367.88
2022-12-03T21:39:11.918Z,101365.16
2022-12-03T21:41:39.873Z,101363.34
2022-12-03T21:44:09.208Z,101365.06
2022-12-03T21:47:10.409Z,101360.66
2022-12-03T21:49:24.848Z,101358.88
2022-12-03T21:51:52.760Z,101362.38
2022-12-03T21:54:20.633Z,101357.06
2022-12-03T21:56:48.764Z,101359.69
2022-12-03T21:59:18.071Z,101362.47
2022-12-03T22:01:47.495Z,101370.56
2022-12-03T22:04:15.688Z,101364.28
2022-12-03T22:06:43.565Z,101355.38
2022-12-03T22:09:11.429Z,101363.47
2022-12-03T22:11:39.266Z,101357.25
2022-12-03T22:14:08.228Z,101362.59
2022-12-03T22:16:37.464Z,101356.31
2022-12-03T22:19:05.466Z,101355.50
2022-12-03T22:21:33.299Z,101356.38
2022-12-03T22:24:01.436Z,101353.69
2022-12-03T22:26:29.284Z,101355.50
2022-12-03T22:28:57.255Z,101350.09
2022-12-03T22:31:25.139Z,101352.78
2022-12-03T22:33:54.398Z,101342.88
2022-12-03T22:36:22.412Z,101341.13
2022-12-03T22:38:50.840Z,101350.16
2022-12-03T22:41:19.973Z,101345.63
2022-12-03T22:43:48.562Z,101339.31
2022-12-03T22:46:17.810Z,101339.31
2022-12-03T22:48:48.005Z,101337.47
2022-12-03T22:51:18.902Z,101331.22
2022-12-03T22:53:46.844Z,101335.72
2022-12-03T22:56:14.794Z,101332.16
2022-12-03T22:58:44.243Z,101331.16
2022-12-03T23:01:22.599Z,101328.38
2022-12-03T23:03:51.026Z,101324.94
2022-12-03T23:06:20.938Z,101324.88
2022-12-03T23:08:48.952Z,101324.06
2022-12-03T23:11:17.431Z,101318.66
2022-12-03T23:13:45.506Z,101318.66
2022-12-03T23:16:16.732Z,101320.47
2022-12-03T23:18:44.701Z,101315.22
2022-12-03T23:21:17.334Z,101311.53
2022-12-03T23:23:46.630Z,101309.84
2022-12-03T23:26:15.669Z,101309.84
2022-12-03T23:28:45.770Z,101309.78
2022-12-03T23:31:18.262Z,101304.38
2022-12-03T23:33:46.349Z,101294.66
2022-12-03T23:36:14.830Z,101303.63
2022-12-03T23:38:42.902Z,101306.31
2022-12-03T23:41:14.232Z,101311.66
2022-12-03T23:43:42.652Z,101317.13
2022-12-03T23:46:14.756Z,101314.41
2022-12-03T23:48:43.727Z,101315.34
2022-12-03T23:51:14.016Z,101320.69
2022-12-03T23:53:42.102Z,101317.13
2022-12-03T23:56:12.815Z,101317.94
2022-12-03T23:58:40.635Z,101318.94
